Ana Sayfa
METAR-TAF:

METAR-TAF

Havaalanları :

Sir Seretse Khama Uluslararası Havalimanı

Gaborone, Botsvana

Enlem: 24-13S, Boylam: 025-55E, yükseklik: 1005 m

Güncel hava durumu gözlemi

Rapor saat 00:00 UTC de 35 dakika önce yapıldı.
Rüzgar batıdan 4 kt
Sıcaklık 19°C
Nem 78%
Basınç 1016 hPa
Görüş mesafesi 10 km veya daha fazla
1500 m altında bulut yok ve kümülonimbus yok

METAR: FBSK 280000Z 27004KT CAVOK 19/15 Q1016 NOSIG

Saat: 02:35 (00:35 UTC)

Tahmin

Rapor saat 21:00 UTC de 3 saat ve 35 dakika önce yapıldı.
Ayın 28'si saat 00 UTC'den ayın 29'si saat 06 UTC'ye kadar geçerli Tahmin
Rüzgar güneybatıdan 6 kt
Görüş mesafesi 10 km veya daha fazla
1500 m altında bulut yok ve kümülonimbus yok

TAF: FBSK 272100Z 2800/2906 22006KT CAVOK

4.000'den fazla havaalanı için hava durumu gözlemleri ve tahminleri (METAR ve TAF raporları).

Kullanılabilir istasyonlar harita üzerinde sarı ve kırmızı noktalarla gösterilir.

İstasyonun adını görmek için fareyi noktanın üzerinde gezdirin.

Sonrasında hava gözlem ve tahminlerini görmek için tıklayın.

Haritayı değiştirmek için: yaklaştırmak için siyah artı işaretli yeşil düğmeye ve uzaklaştırmak için de eksi işaretli düğmeye hızla tıklayın; bitişik haritalar için yeşil okları kullanın.


METAR-TAF: